Time;durP1;ratioP1;P1;durP2;ratioP2;P2;SDS_P1;SDS_P2;PMS_P1;PMS_P2;Temp;Humidity;BMP_temperature;BMP_pressure;BME280_temperature;BME280_humidity;BME280_pressure;Samples;Min_cycle;Max_cycle;Signal;HPM_P1;HPM_P2
2021/07/06 00:02:25;;;;;;;1999.90;999.90;;;;;;;17.85;100.00;95273.38;5111821;28;20791;-64
2021/07/06 00:04:59;;;;;;;1999.90;999.90;;;;;;;17.89;100.00;95259.19;5111105;28;20666;-65
2021/07/06 00:07:26;;;;;;;1999.90;999.90;;;;;;;17.88;100.00;95265.56;5111687;28;20198;-65
2021/07/06 00:09:56;;;;;;;1999.90;999.90;;;;;;;17.86;100.00;95254.63;5111138;28;20605;-65
2021/07/06 00:12:24;;;;;;;1999.90;999.90;;;;;;;17.90;100.00;95259.97;5111595;28;20659;-65
2021/07/06 00:14:51;;;;;;;1999.90;999.90;;;;;;;17.88;100.00;95262.19;5106354;28;20643;-65
2021/07/06 00:17:19;;;;;;;1999.90;999.90;;;;;;;17.85;100.00;95268.13;5093706;28;20222;-65
2021/07/06 00:19:47;;;;;;;1999.90;999.90;;;;;;;17.82;100.00;95274.84;5111643;28;20214;-66
2021/07/06 00:22:18;;;;;;;1999.90;999.90;;;;;;;17.81;100.00;95267.28;5124885;27;20222;-66
2021/07/06 00:24:46;;;;;;;1999.90;999.90;;;;;;;17.76;100.00;95270.94;5111310;28;20203;-65
2021/07/06 00:27:14;;;;;;;1999.90;999.90;;;;;;;17.55;100.00;95267.84;5109744;28;20191;-65
2021/07/06 00:29:42;;;;;;;1999.90;999.90;;;;;;;17.48;100.00;95271.09;5111183;28;20199;-66
2021/07/06 00:32:09;;;;;;;1999.90;999.90;;;;;;;17.38;100.00;95265.59;5110746;28;20675;-65
2021/07/06 00:34:37;;;;;;;1999.90;999.90;;;;;;;17.32;100.00;95274.81;5111581;28;20262;-65
2021/07/06 00:37:05;;;;;;;1999.90;999.90;;;;;;;17.28;100.00;95271.38;5110725;28;20276;-65
2021/07/06 00:39:32;;;;;;;1999.90;999.90;;;;;;;17.26;100.00;95273.56;5110777;28;20286;-65
2021/07/06 00:42:05;;;;;;;1999.90;999.90;;;;;;;17.19;100.00;95267.03;5111010;28;20272;-66
2021/07/06 00:44:33;;;;;;;1999.90;999.90;;;;;;;17.18;100.00;95281.25;5111339;28;20222;-66
2021/07/06 00:47:00;;;;;;;1999.90;999.90;;;;;;;16.95;100.00;95277.72;5111220;28;20302;-65
2021/07/06 00:49:27;;;;;;;1999.90;999.90;;;;;;;16.94;100.00;95273.56;5110934;28;20199;-65
2021/07/06 00:51:54;;;;;;;1999.90;999.90;;;;;;;16.97;100.00;95288.66;5111063;28;20195;-64
2021/07/06 00:54:22;;;;;;;1999.90;999.90;;;;;;;17.00;100.00;95281.94;5110836;28;20690;-64
2021/07/06 00:56:49;;;;;;;1999.90;999.90;;;;;;;17.01;100.00;95283.47;5110871;28;20191;-64
2021/07/06 00:59:16;;;;;;;1999.90;999.90;;;;;;;17.14;100.00;95292.78;5110957;28;20195;-65
2021/07/06 01:01:45;;;;;;;1999.90;999.90;;;;;;;17.20;100.00;95284.31;5110776;28;20670;-64
2021/07/06 01:04:12;;;;;;;1999.90;999.90;;;;;;;17.19;100.00;95289.91;5110797;28;20940;-65
2021/07/06 01:06:39;;;;;;;1999.90;999.90;;;;;;;17.07;100.00;95293.41;5110923;28;20199;-65
2021/07/06 01:09:06;;;;;;;1999.90;999.90;;;;;;;17.06;100.00;95294.50;5110780;28;20199;-65
2021/07/06 01:11:35;;;;;;;1999.90;999.90;;;;;;;17.08;100.00;95299.41;5110816;28;20218;-64
2021/07/06 01:14:03;;;;;;;1999.90;999.90;;;;;;;17.11;100.00;95299.50;5110811;28;20702;-65
2021/07/06 01:16:30;;;;;;;1999.90;999.90;;;;;;;17.06;100.00;95297.13;5110473;28;20198;-64
2021/07/06 01:18:59;;;;;;;1999.90;999.90;;;;;;;17.08;100.00;95300.19;5110481;28;20206;-65
2021/07/06 01:21:26;;;;;;;1999.90;999.90;;;;;;;17.09;100.00;95299.06;5110610;28;20207;-64
2021/07/06 01:23:54;;;;;;;1999.90;999.90;;;;;;;17.08;100.00;95299.41;5110349;27;20206;-62
2021/07/06 01:26:22;;;;;;;1999.90;999.90;;;;;;;17.15;100.00;95302.19;5110348;28;20206;-66
2021/07/06 01:28:52;;;;;;;1999.90;999.90;;;;;;;17.12;100.00;95306.28;5110339;28;20286;-66
2021/07/06 01:31:19;;;;;;;1999.90;999.90;;;;;;;17.06;100.00;95302.38;5110123;28;20195;-67
2021/07/06 01:33:46;;;;;;;1999.90;999.90;;;;;;;17.07;100.00;95303.91;5089867;28;20287;-66
2021/07/06 01:36:16;;;;;;;1999.90;999.90;;;;;;;17.01;100.00;95297.38;5097901;27;20203;-65
2021/07/06 01:38:43;;;;;;;1999.90;999.90;;;;;;;17.07;100.00;95301.28;5107254;28;20194;-65
2021/07/06 01:41:12;;;;;;;1999.90;999.90;;;;;;;17.16;100.00;95299.25;5109328;28;20338;-66
2021/07/06 01:43:39;;;;;;;1999.90;999.90;;;;;;;17.12;100.00;95301.03;5110237;28;20222;-66
2021/07/06 01:46:06;;;;;;;1999.90;999.90;;;;;;;17.11;100.00;95299.50;5109661;28;20191;-65
2021/07/06 01:48:33;;;;;;;1999.90;999.90;;;;;;;16.99;100.00;95285.66;5109546;28;20203;-69
2021/07/06 01:51:00;;;;;;;1999.90;999.90;;;;;;;17.01;100.00;95293.97;5109901;28;20195;-65
2021/07/06 01:53:27;;;;;;;1999.90;999.90;;;;;;;17.01;100.00;95293.97;5109922;28;20598;-65
2021/07/06 01:55:55;;;;;;;1999.90;999.90;;;;;;;16.99;100.00;95296.16;5109064;28;20205;-65
2021/07/06 01:58:26;;;;;;;1999.90;999.90;;;;;;;16.97;100.00;95296.53;5109597;28;20210;-65
2021/07/06 02:00:56;;;;;;;1999.90;999.90;;;;;;;16.97;100.00;95299.16;5098569;28;20323;-64
2021/07/06 02:03:24;;;;;;;1999.90;999.90;;;;;;;16.96;100.00;95297.63;5102854;28;20219;-65
2021/07/06 02:05:56;;;;;;;1999.90;999.90;;;;;;;16.91;100.00;95303.13;5103654;28;20203;-65
2021/07/06 02:08:23;;;;;;;1999.90;999.90;;;;;;;16.85;100.00;95303.69;5108722;28;20671;-63
2021/07/06 02:10:53;;;;;;;1999.90;999.90;;;;;;;16.79;100.00;95303.19;5108222;28;20203;-66
2021/07/06 02:13:24;;;;;;;1999.90;999.90;;;;;;;16.72;100.00;95303.78;5109721;28;20183;-66
2021/07/06 02:15:53;;;;;;;1999.90;999.90;;;;;;;16.77;100.00;95298.28;5109175;28;20902;-66
2021/07/06 02:18:22;;;;;;;1999.90;999.90;;;;;;;16.77;100.00;95298.28;5109143;28;20271;-65
2021/07/06 02:20:51;;;;;;;1999.90;999.90;;;;;;;16.68;100.00;95302.94;5108972;28;20191;-66
2021/07/06 02:23:18;;;;;;;1999.90;999.90;;;;;;;16.69;100.00;95307.06;5109107;28;20218;-66
2021/07/06 02:25:46;;;;;;;1999.90;999.90;;;;;;;16.75;100.00;95307.56;5111695;27;20954;-65
2021/07/06 02:28:13;;;;;;;1999.90;999.90;;;;;;;16.68;100.00;95312.66;5109530;28;20195;-65
2021/07/06 02:30:41;;;;;;;1999.90;999.90;;;;;;;16.67;100.00;95311.13;5108775;28;20199;-66
2021/07/06 02:33:08;;;;;;;1999.90;999.90;;;;;;;16.64;100.00;95317.03;5109217;28;20202;-65
2021/07/06 02:35:36;;;;;;;1999.90;999.90;;;;;;;16.63;100.00;95318.16;5109227;28;20198;-66
2021/07/06 02:38:04;;;;;;;1999.90;999.90;;;;;;;16.73;100.00;95325.53;5108885;28;20206;-65
2021/07/06 02:40:31;;;;;;;1999.90;999.90;;;;;;;16.66;100.00;95320.88;5108977;28;20239;-66
2021/07/06 02:42:59;;;;;;;1999.90;999.90;;;;;;;16.56;100.00;95317.94;5109244;28;20781;-67
2021/07/06 02:45:27;;;;;;;1999.90;999.90;;;;;;;16.54;100.00;95326.13;5108862;28;20624;-66
2021/07/06 02:47:56;;;;;;;1999.90;999.90;;;;;;;16.50;100.00;95327.91;5096068;28;20209;-66
2021/07/06 02:50:26;;;;;;;1999.90;999.90;;;;;;;16.53;100.00;95326.47;5088608;28;20203;-69
2021/07/06 02:52:53;;;;;;;1999.90;999.90;;;;;;;16.56;100.00;95329.19;5109837;28;20203;-71
2021/07/06 02:55:21;;;;;;;1999.90;999.90;;;;;;;16.59;100.00;95330.41;5113352;28;20195;-67
2021/07/06 02:57:52;;;;;;;1999.90;999.90;;;;;;;16.56;100.00;95326.56;5113266;28;20187;-71
2021/07/06 03:00:22;;;;;;;1999.90;999.90;;;;;;;16.47;100.00;95333.06;5113317;28;20187;-67
2021/07/06 03:02:51;;;;;;;1999.90;999.90;;;;;;;16.46;100.00;95331.53;5110347;28;20210;-64
2021/07/06 03:05:22;;;;;;;1999.90;999.90;;;;;;;16.50;100.00;95332.38;5110002;28;20199;-66
2021/07/06 03:07:49;;;;;;;1999.90;999.90;;;;;;;16.48;100.00;95335.34;5108190;28;20206;-66
2021/07/06 03:10:17;;;;;;;1999.90;999.90;;;;;;;16.50;100.00;95342.88;5111979;28;20207;-68
2021/07/06 03:12:45;;;;;;;1999.90;999.90;;;;;;;16.53;100.00;95342.97;5111560;28;20430;-63
2021/07/06 03:15:14;;;;;;;1999.90;999.90;;;;;;;16.63;100.00;95341.78;5113082;28;20195;-64
2021/07/06 03:17:42;;;;;;;1999.90;999.90;;;;;;;16.64;100.00;95345.91;5112711;28;20206;-64
2021/07/06 03:20:11;;;;;;;1999.90;999.90;;;;;;;16.61;100.00;95344.72;5112593;28;20199;-63
2021/07/06 03:22:40;;;;;;;1999.90;999.90;;;;;;;16.66;100.00;95346.34;5108269;28;20216;-62
2021/07/06 03:25:10;;;;;;;1999.90;999.90;;;;;;;16.59;100.00;95351.38;5101822;28;20199;-63
2021/07/06 03:27:38;;;;;;;1999.90;999.90;;;;;;;16.55;100.00;95350.50;5111839;28;20279;-64
2021/07/06 03:30:05;;;;;;;1999.90;999.90;;;;;;;16.57;100.00;95354.34;5102737;27;20195;-63
2021/07/06 03:32:33;;;;;;;1999.90;999.90;;;;;;;16.63;100.00;95353.03;5103294;28;20200;-63
2021/07/06 03:35:01;;;;;;;1999.90;999.90;;;;;;;16.62;100.00;95354.13;5094384;28;20195;-63
2021/07/06 03:37:28;;;;;;;1999.90;999.90;;;;;;;16.65;100.00;95363.16;5106968;28;20552;-62
2021/07/06 03:39:57;;;;;;;1999.90;999.90;;;;;;;16.68;100.00;95365.91;5111872;28;20594;-61
2021/07/06 03:42:24;;;;;;;1999.90;999.90;;;;;;;16.74;100.00;95364.56;5097768;28;20215;-65
2021/07/06 03:44:51;;;;;;;1999.90;999.90;;;;;;;16.79;100.00;95369.56;5112514;28;20206;-62
2021/07/06 03:47:18;;;;;;;1999.90;999.90;;;;;;;16.95;100.00;95366.97;5112303;28;20195;-61
2021/07/06 03:49:45;;;;;;;1999.90;999.90;;;;;;;16.98;100.00;95368.94;5111529;28;20802;-61
2021/07/06 03:52:12;;;;;;;1999.90;999.90;;;;;;;17.04;100.00;95367.56;5111940;28;20591;-60
2021/07/06 03:54:39;;;;;;;1999.90;999.90;;;;;;;17.10;100.00;95375.97;5108832;28;20715;-66
2021/07/06 03:57:08;;;;;;;1999.90;999.90;;;;;;;17.14;100.00;95377.59;5111195;28;20203;-62
2021/07/06 03:59:35;;;;;;;1999.90;999.90;;;;;;;17.11;100.00;95372.25;5112457;28;20645;-63
2021/07/06 04:02:02;;;;;;;1999.90;999.90;;;;;;;17.20;100.00;95376.25;5112037;28;20195;-62
2021/07/06 04:04:29;;;;;;;1999.90;999.90;;;;;;;17.27;100.00;95382.78;5111709;28;20223;-62
2021/07/06 04:06:56;;;;;;;1999.90;999.90;;;;;;;17.30;100.00;95384.72;5112245;28;20213;-63
2021/07/06 04:09:23;;;;;;;1999.90;999.90;;;;;;;17.35;100.00;95379.22;5112186;28;20195;-61
2021/07/06 04:11:50;;;;;;;1999.90;999.90;;;;;;;17.44;100.00;95385.06;5111899;28;20203;-64
2021/07/06 04:14:19;;;;;;;1999.90;999.90;;;;;;;17.53;100.00;95389.03;5112085;28;20191;-64
2021/07/06 04:16:46;;;;;;;1999.90;999.90;;;;;;;17.57;100.00;95394.41;5112154;28;20243;-64
2021/07/06 04:19:13;;;;;;;1999.90;999.90;;;;;;;17.61;100.00;95395.28;5114222;27;20206;-64
2021/07/06 04:21:40;;;;;;;1999.90;999.90;;;;;;;17.72;100.00;95404.16;5111701;28;20195;-65
2021/07/06 04:24:07;;;;;;;1999.90;999.90;;;;;;;17.91;100.00;95404.22;5111735;28;20601;-63
2021/07/06 04:26:34;;;;;;;1999.90;999.90;;;;;;;18.04;100.00;95400.38;5111471;28;20203;-61
2021/07/06 04:29:01;;;;;;;1999.90;999.90;;;;;;;18.18;100.00;95402.56;5111441;28;20198;-61
2021/07/06 04:31:29;;;;;;;1999.90;999.90;;;;;;;18.39;100.00;95400.38;5111289;28;20199;-61
2021/07/06 04:33:56;;;;;;;1999.90;999.90;;;;;;;18.77;100.00;95412.84;5111699;28;20671;-60
2021/07/06 04:36:23;;;;;;;1999.90;999.90;;;;;;;19.15;100.00;95419.16;5111356;28;20199;-61
2021/07/06 04:38:50;;;;;;;1999.90;999.90;;;;;;;19.43;100.00;95418.91;5111308;28;20198;-61
2021/07/06 04:41:17;;;;;;;1999.90;999.90;;;;;;;19.81;99.36;95423.31;5111066;28;20234;-61
2021/07/06 04:43:44;;;;;;;1999.90;999.90;;;;;;;20.35;95.67;95434.31;5111176;28;20223;-61
2021/07/06 04:46:11;;;;;;;1999.90;999.90;;;;;;;20.72;93.98;95436.31;5111387;28;20253;-62
2021/07/06 04:48:40;;;;;;;1999.90;999.90;;;;;;;20.98;93.22;95438.84;5111473;28;20238;-62
2021/07/06 04:51:09;;;;;;;1999.90;999.90;;;;;;;21.06;92.32;95440.47;5111157;28;20191;-61
2021/07/06 04:53:38;;;;;;;1999.90;999.90;;;;;;;21.09;91.34;95442.38;5111036;28;20252;-61
2021/07/06 04:56:06;;;;;;;1999.90;999.90;;;;;;;21.19;90.98;95449.69;5110110;28;20742;-61
2021/07/06 04:58:35;;;;;;;1999.90;999.90;;;;;;;21.22;90.58;95454.25;5090642;28;20192;-62
2021/07/06 05:01:02;;;;;;;1999.90;999.90;;;;;;;21.11;90.76;95458.66;5090660;28;20203;-63
2021/07/06 05:03:30;;;;;;;1999.90;999.90;;;;;;;21.17;89.42;95459.88;5090545;28;20297;-66
2021/07/06 05:05:59;;;;;;;1999.90;999.90;;;;;;;21.18;90.68;95457.97;5090344;28;20717;-65
2021/07/06 05:08:27;;;;;;;1999.90;999.90;;;;;;;21.34;89.48;95459.28;5090163;28;20200;-61
2021/07/06 05:10:54;;;;;;;1999.90;999.90;;;;;;;21.35;90.30;95462.69;5090295;28;20253;-60
2021/07/06 05:13:24;;;;;;;1999.90;999.90;;;;;;;21.44;87.15;95461.28;5090422;28;20214;-59
2021/07/06 05:15:51;;;;;;;1999.90;999.90;;;;;;;21.42;87.81;95460.88;5089401;28;20191;-60
2021/07/06 05:18:18;;;;;;;1999.90;999.90;;;;;;;21.48;87.06;95459.44;5090484;28;20576;-61
2021/07/06 05:20:45;;;;;;;1999.90;999.90;;;;;;;21.58;87.32;95462.53;5089999;28;20703;-61
2021/07/06 05:23:14;;;;;;;1999.90;999.90;;;;;;;21.71;85.92;95463.81;5090015;28;20223;-61
2021/07/06 05:25:41;;;;;;;1999.90;999.90;;;;;;;21.85;87.54;95469.22;5089995;28;20203;-60
2021/07/06 05:28:08;;;;;;;1999.90;999.90;;;;;;;21.75;86.19;95473.28;5090263;28;20577;-61
2021/07/06 05:30:35;;;;;;;1999.90;999.90;;;;;;;21.83;85.97;95471.44;5090236;28;20200;-61
2021/07/06 05:33:02;;;;;;;1999.90;999.90;;;;;;;21.85;85.35;95474.50;5104579;28;20267;-61
2021/07/06 05:35:29;;;;;;;1999.90;999.90;;;;;;;21.76;87.40;95477.47;5110220;28;20252;-60
2021/07/06 05:37:56;;;;;;;1999.90;999.90;;;;;;;22.01;86.66;95477.69;5110424;28;20198;-61
2021/07/06 05:40:25;;;;;;;1999.90;999.90;;;;;;;22.26;86.95;95486.59;5110092;28;20227;-60
2021/07/06 05:42:52;;;;;;;1999.90;999.90;;;;;;;22.19;88.02;95473.28;5110029;28;20183;-60
2021/07/06 05:45:19;;;;;;;1999.90;999.90;;;;;;;22.51;86.00;95484.09;5110026;28;20967;-61
2021/07/06 05:47:46;;;;;;;1999.90;999.90;;;;;;;22.59;85.08;95479.59;5109977;28;20202;-61
2021/07/06 05:50:15;;;;;;;1999.90;999.90;;;;;;;22.66;83.81;95483.06;5109827;28;20206;-61
2021/07/06 05:52:44;;;;;;;1999.90;999.90;;;;;;;22.74;85.91;95481.97;5109869;27;20206;-61
2021/07/06 05:55:11;;;;;;;1999.90;999.90;;;;;;;22.35;87.10;95485.50;5109800;28;20195;-61
2021/07/06 05:57:43;;;;;;;1999.90;999.90;;;;;;;22.52;85.10;95482.94;5110066;28;20195;-61
2021/07/06 06:00:13;;;;;;;1999.90;999.90;;;;;;;22.69;84.42;95479.66;5110166;28;20188;-61
2021/07/06 06:02:40;;;;;;;1999.90;999.90;;;;;;;22.87;86.67;95479.75;5101670;28;20203;-61
2021/07/06 06:05:09;;;;;;;1999.90;999.90;;;;;;;23.17;84.32;95482.13;5105734;28;20233;-61
2021/07/06 06:07:40;;;;;;;1999.90;999.90;;;;;;;23.17;84.33;95477.59;5110114;28;20610;-65
2021/07/06 06:10:09;;;;;;;1999.90;999.90;;;;;;;23.22;83.56;95473.81;5109728;28;20198;-64
2021/07/06 06:12:36;;;;;;;1999.90;999.90;;;;;;;23.44;85.11;95477.31;5112634;27;20298;-66
2021/07/06 06:15:07;;;;;;;1999.90;999.90;;;;;;;23.48;84.09;95478.84;5109934;28;20243;-62
2021/07/06 06:17:34;;;;;;;1999.90;999.90;;;;;;;23.57;83.98;95478.47;5109941;28;20204;-67
2021/07/06 06:20:01;;;;;;;1999.90;999.90;;;;;;;23.61;82.56;95468.66;5109814;28;20678;-62
2021/07/06 06:22:29;;;;;;;1999.90;999.90;;;;;;;23.68;85.08;95473.97;5109476;28;20203;-68
2021/07/06 06:24:56;;;;;;;1999.90;999.90;;;;;;;23.83;84.64;95474.72;5109704;28;20706;-69
2021/07/06 06:27:23;;;;;;;1999.90;999.90;;;;;;;23.60;84.47;95469.78;5109019;28;20203;-69
2021/07/06 06:29:50;;;;;;;1999.90;999.90;;;;;;;23.81;83.64;95463.75;5109585;28;20199;-70
2021/07/06 06:32:18;;;;;;;1999.90;999.90;;;;;;;24.27;83.84;95467.16;5108369;28;20207;-69
2021/07/06 06:34:46;;;;;;;1999.90;999.90;;;;;;;24.39;80.06;95466.00;5109544;28;20208;-69
2021/07/06 06:37:13;;;;;;;1999.90;999.90;;;;;;;24.18;83.04;95460.72;5109333;28;20290;-70
2021/07/06 06:39:40;;;;;;;1999.90;999.90;;;;;;;24.30;84.18;95463.75;5109351;28;20202;-70
2021/07/06 06:42:08;;;;;;;1999.90;999.90;;;;;;;24.52;84.09;95469.00;5109373;28;20874;-70
2021/07/06 06:44:35;;;;;;;1999.90;999.90;;;;;;;24.67;82.43;95467.84;5109290;28;20223;-69
2021/07/06 06:47:02;;;;;;;1999.90;999.90;;;;;;;24.85;81.52;95460.56;5109496;28;20609;-70
2021/07/06 06:49:31;;;;;;;1999.90;999.90;;;;;;;24.79;81.13;95462.88;5109174;28;20651;-71
2021/07/06 06:51:58;;;;;;;1999.90;999.90;;;;;;;24.70;79.29;95459.88;5109126;28;20195;-71
2021/07/06 06:54:25;;;;;;;1999.90;999.90;;;;;;;25.17;80.67;95452.47;5109079;28;20202;-71
2021/07/06 06:56:52;;;;;;;1999.90;999.90;;;;;;;25.40;76.88;95457.31;5109168;28;20263;-70
2021/07/06 06:59:20;;;;;;;1999.90;999.90;;;;;;;25.34;76.15;95456.97;5109334;28;20219;-70
2021/07/06 07:01:47;;;;;;;1999.90;999.90;;;;;;;25.40;77.69;95447.44;5109386;28;20203;-70
2021/07/06 07:04:14;;;;;;;1999.90;999.90;;;;;;;25.63;74.60;95454.91;5108852;28;20259;-70
2021/07/06 07:06:42;;;;;;;1999.90;999.90;;;;;;;25.76;73.82;95453.28;5108999;28;20203;-70
2021/07/06 07:09:09;;;;;;;1999.90;999.90;;;;;;;26.14;71.62;95457.56;5108964;28;20200;-68
2021/07/06 07:11:37;;;;;;;1999.90;999.90;;;;;;;26.32;71.20;95453.97;5108932;28;20195;-69
2021/07/06 07:14:04;;;;;;;1999.90;999.90;;;;;;;25.86;72.76;95451.69;5109353;28;20253;-69
2021/07/06 07:16:31;;;;;;;1999.90;999.90;;;;;;;26.01;70.91;95445.09;5108934;28;20199;-68
2021/07/06 07:18:58;;;;;;;1999.90;999.90;;;;;;;26.41;70.12;95449.69;5109274;28;20203;-68
2021/07/06 07:21:25;;;;;;;1999.90;999.90;;;;;;;26.33;69.93;95456.25;5109126;28;20252;-68
2021/07/06 07:23:53;;;;;;;1999.90;999.90;;;;;;;26.49;70.27;95445.81;5109193;28;20215;-68
2021/07/06 07:26:20;;;;;;;1999.90;999.90;;;;;;;26.69;68.04;95453.25;5109070;28;20271;-72
2021/07/06 07:28:47;;;;;;;1999.90;999.90;;;;;;;26.75;68.56;95446.31;5109013;28;20206;-73
2021/07/06 07:31:14;;;;;;;1999.90;999.90;;;;;;;26.37;69.12;95430.31;5109026;28;20207;-63
2021/07/06 07:33:41;;;;;;;1999.90;999.90;;;;;;;26.43;68.56;95441.31;5108743;28;20751;-63
2021/07/06 07:36:09;;;;;;;1999.90;999.90;;;;;;;26.73;68.93;95440.63;5109050;28;20252;-63
2021/07/06 07:38:36;;;;;;;1999.90;999.90;;;;;;;26.85;68.99;95434.78;5111029;28;20571;-63
2021/07/06 07:41:04;;;;;;;1999.90;999.90;;;;;;;26.87;68.45;95435.13;5112344;28;20230;-63
2021/07/06 07:43:31;;;;;;;1999.90;999.90;;;;;;;26.86;66.26;95438.94;5112437;28;21006;-63
2021/07/06 07:45:58;;;;;;;1999.90;999.90;;;;;;;27.06;67.67;95434.50;5112295;28;20202;-62
2021/07/06 07:48:25;;;;;;;1999.90;999.90;;;;;;;27.67;65.20;95437.13;5112506;28;20283;-63
2021/07/06 07:50:53;;;;;;;1999.90;999.90;;;;;;;27.53;64.18;95430.09;5112653;28;20241;-62
2021/07/06 07:53:20;;;;;;;1999.90;999.90;;;;;;;27.77;64.78;95428.97;5112536;28;20252;-63
2021/07/06 07:55:47;;;;;;;1999.90;999.90;;;;;;;27.89;63.97;95424.22;5112473;28;20206;-63
2021/07/06 07:58:15;;;;;;;1999.90;999.90;;;;;;;27.83;64.04;95422.00;5112451;28;20267;-63
2021/07/06 08:00:42;;;;;;;1999.90;999.90;;;;;;;27.67;63.99;95424.53;5111931;28;20191;-62
2021/07/06 08:03:09;;;;;;;1999.90;999.90;;;;;;;27.74;60.92;95437.03;5111950;28;20252;-63
2021/07/06 08:05:36;;;;;;;1999.90;999.90;;;;;;;28.01;60.44;95423.63;5112079;28;20280;-63
2021/07/06 08:08:04;;;;;;;1999.90;999.90;;;;;;;28.24;62.11;95420.97;5112080;28;20628;-63
2021/07/06 08:10:31;;;;;;;1999.90;999.90;;;;;;;28.42;60.24;95426.00;5111861;27;20207;-63
2021/07/06 08:12:58;;;;;;;1999.90;999.90;;;;;;;28.47;60.58;95434.28;5114430;27;20195;-62
2021/07/06 08:15:27;;;;;;;1999.90;999.90;;;;;;;28.31;59.67;95428.09;5111763;28;20198;-63
2021/07/06 08:17:54;;;;;;;1999.90;999.90;;;;;;;28.59;58.30;95428.31;5111746;28;20206;-62
2021/07/06 08:20:21;;;;;;;1999.90;999.90;;;;;;;28.54;59.96;95428.06;5111599;28;20214;-62
2021/07/06 08:22:51;;;;;;;1999.90;999.90;;;;;;;28.77;57.73;95421.91;5112085;28;20203;-62
2021/07/06 08:25:18;;;;;;;1999.90;999.90;;;;;;;28.92;57.67;95431.94;5111779;28;20215;-63
2021/07/06 08:27:45;;;;;;;1999.90;999.90;;;;;;;28.52;57.83;95425.03;5111838;28;20282;-63
2021/07/06 08:30:12;;;;;;;1999.90;999.90;;;;;;;28.76;58.04;95439.13;5111579;28;20690;-63
2021/07/06 08:32:41;;;;;;;1999.90;999.90;;;;;;;28.79;54.65;95436.41;5111585;28;20206;-63
2021/07/06 08:35:09;;;;;;;1999.90;999.90;;;;;;;28.93;55.30;95427.34;5111391;28;20252;-62
2021/07/06 08:37:37;;;;;;;1999.90;999.90;;;;;;;29.45;55.05;95435.41;5111438;28;20248;-63
2021/07/06 08:40:05;;;;;;;1999.90;999.90;;;;;;;29.63;52.94;95425.06;5111429;28;20198;-63
2021/07/06 08:42:32;;;;;;;1999.90;999.90;;;;;;;30.01;54.28;95421.88;5111282;27;20240;-63
2021/07/06 08:44:59;;;;;;;1999.90;999.90;;;;;;;30.30;52.73;95426.13;5111590;27;20219;-63
2021/07/06 08:47:30;;;;;;;1999.90;999.90;;;;;;;29.84;51.86;95424.53;5111545;28;20191;-63
2021/07/06 08:50:01;;;;;;;1999.90;999.90;;;;;;;30.00;52.25;95426.50;5111159;28;20244;-63
2021/07/06 08:52:30;;;;;;;1999.90;999.90;;;;;;;30.30;51.32;95436.09;5111468;28;20183;-63
2021/07/06 08:54:57;;;;;;;1999.90;999.90;;;;;;;30.12;50.98;95427.75;5111394;28;20202;-63
2021/07/06 08:57:25;;;;;;;1999.90;999.90;;;;;;;30.32;50.31;95426.47;5111173;28;20191;-63
2021/07/06 08:59:52;;;;;;;1999.90;999.90;;;;;;;29.90;50.61;95428.25;5111067;28;20195;-63
2021/07/06 09:02:23;;;;;;;1999.90;999.90;;;;;;;30.50;50.51;95431.38;5111451;28;20615;-63
2021/07/06 09:04:52;;;;;;;1999.90;999.90;;;;;;;30.73;49.75;95439.19;5111128;28;20211;-63
2021/07/06 09:07:21;;;;;;;1999.90;999.90;;;;;;;30.91;49.41;95432.56;5111151;28;20202;-63
2021/07/06 09:09:50;;;;;;;1999.90;999.90;;;;;;;30.94;49.38;95427.09;5111110;28;20269;-62
2021/07/06 09:12:18;;;;;;;1999.90;999.90;;;;;;;31.18;48.59;95419.56;5110946;28;20207;-63
2021/07/06 09:14:48;;;;;;;1999.90;999.90;;;;;;;31.06;48.76;95417.59;5110782;28;20197;-62
2021/07/06 09:17:17;;;;;;;1999.90;999.90;;;;;;;30.44;48.16;95413.53;5111173;28;20190;-63
2021/07/06 09:19:46;;;;;;;1999.90;999.90;;;;;;;30.43;50.43;95410.09;5110563;28;20206;-62
2021/07/06 09:22:16;;;;;;;1999.90;999.90;;;;;;;30.17;50.74;95413.81;5110891;28;20294;-63
2021/07/06 09:24:46;;;;;;;1999.90;999.90;;;;;;;30.49;48.29;95415.69;5110423;28;20260;-63
2021/07/06 09:27:38;;;;;;;1999.90;999.90;;;;;;;30.18;47.32;95416.09;5110673;28;20179;-63
2021/07/06 09:30:16;;;;;;;1999.90;999.90;;;;;;;30.08;46.13;95421.72;5090502;28;20272;-63
2021/07/06 09:32:45;;;;;;;1999.90;999.90;;;;;;;29.87;47.09;95415.69;5110605;28;20183;-63
2021/07/06 09:35:14;;;;;;;1999.90;999.90;;;;;;;30.21;47.44;95417.16;5110313;28;20195;-63
2021/07/06 09:37:48;;;;;;;1999.90;999.90;;;;;;;30.24;48.21;95413.63;5110583;28;20199;-63
2021/07/06 09:40:26;;;;;;;1999.90;999.90;;;;;;;30.21;47.88;95419.84;5110014;27;20230;-63
2021/07/06 09:43:30;;;;;;;1999.90;999.90;;;;;;;30.33;46.92;95413.81;5110525;28;20205;-63
2021/07/06 09:46:07;;;;;;;1999.90;999.90;;;;;;;30.42;46.76;95419.31;5110467;28;20230;-62
2021/07/06 09:48:35;;;;;;;1999.90;999.90;;;;;;;30.42;45.68;95419.31;5110111;28;20182;-63
2021/07/06 09:51:16;;;;;;;1999.90;999.90;;;;;;;30.77;47.57;95418.38;5110410;28;20598;-63
2021/07/06 09:53:47;;;;;;;1999.90;999.90;;;;;;;30.66;44.61;95420.59;5110497;28;20586;-63
2021/07/06 09:56:18;;;;;;;1999.90;999.90;;;;;;;30.95;45.91;95415.19;5110321;28;20240;-63
2021/07/06 09:58:53;;;;;;;1999.90;999.90;;;;;;;30.49;45.11;95416.44;5109887;28;20252;-63
2021/07/06 10:01:20;;;;;;;1999.90;999.90;;;;;;;30.86;48.61;95417.00;5109400;28;20723;-63
2021/07/06 10:03:49;;;;;;;1999.90;999.90;;;;;;;30.86;45.83;95417.75;5110146;28;20191;-63
2021/07/06 10:06:18;;;;;;;1999.90;999.90;;;;;;;30.98;44.05;95411.66;5109911;28;20219;-63
2021/07/06 10:08:46;;;;;;;1999.90;999.90;;;;;;;31.10;43.69;95418.22;5109857;28;20199;-63
2021/07/06 10:11:13;;;;;;;1999.90;999.90;;;;;;;31.34;39.72;95416.75;5109591;28;20191;-64
2021/07/06 10:13:42;;;;;;;1999.90;999.90;;;;;;;31.35;43.22;95418.25;5109988;28;20199;-63
2021/07/06 10:16:09;;;;;;;1999.90;999.90;;;;;;;31.29;42.26;95414.59;5109772;28;20199;-64
2021/07/06 10:18:37;;;;;;;1999.90;999.90;;;;;;;30.95;43.41;95411.75;5109755;28;20281;-63
2021/07/06 10:21:06;;;;;;;1999.90;999.90;;;;;;;30.52;44.30;95414.88;5111192;27;20222;-63
2021/07/06 10:23:35;;;;;;;1999.90;999.90;;;;;;;30.13;47.20;95413.16;5109572;28;20294;-63
2021/07/06 10:26:05;;;;;;;1999.90;999.90;;;;;;;30.46;45.26;95409.25;5109721;28;20227;-63
2021/07/06 10:28:33;;;;;;;1999.90;999.90;;;;;;;30.77;45.77;95410.31;5109543;28;20199;-63
2021/07/06 10:31:18;;;;;;;1999.90;999.90;;;;;;;31.20;41.53;95412.56;5109462;28;20252;-63
2021/07/06 10:33:47;;;;;;;1999.90;999.90;;;;;;;31.24;43.28;95406.31;5109382;28;20228;-63
2021/07/06 10:36:16;;;;;;;1999.90;999.90;;;;;;;31.31;41.25;95412.25;5109659;28;20206;-63
2021/07/06 10:38:48;;;;;;;1999.90;999.90;;;;;;;31.39;42.12;95412.75;5109691;28;20199;-63
2021/07/06 10:41:48;;;;;;;1999.90;999.90;;;;;;;31.61;39.98;95403.66;5109257;28;20286;-63
2021/07/06 10:44:17;;;;;;;1999.90;999.90;;;;;;;31.67;39.64;95400.44;5109112;28;20232;-63
2021/07/06 10:46:49;;;;;;;1999.90;999.90;;;;;;;31.28;40.40;95405.06;5109584;28;20703;-63
2021/07/06 10:49:28;;;;;;;1999.90;999.90;;;;;;;31.16;39.68;95400.41;5109369;28;20221;-63
2021/07/06 10:51:56;;;;;;;1999.90;999.90;;;;;;;31.08;40.57;95391.06;5109310;28;20183;-62
2021/07/06 10:54:28;;;;;;;1999.90;999.90;;;;;;;31.25;40.29;95397.09;5109553;28;20203;-63
2021/07/06 10:56:57;;;;;;;1999.90;999.90;;;;;;;31.49;38.45;95396.31;5109558;28;20202;-63
2021/07/06 10:59:25;;;;;;;1999.90;999.90;;;;;;;31.41;38.78;95384.31;5109213;28;20195;-63